Flight Track Log - Related Links

Times and Time Zones

All times are in EST time to prevent confusion due to time zone crossing. See the N4137F flight status page for this flight to view local times or setup timezone preferences in your user account.

Time Position Orientation Groundspeed Altitude Reporting Facility
EST Latitude Longitude Course Direction KTS MPH feet Rate Location/Type
Tue 02:16:12 PM 27.5053 -80.3244 76° East 112 129 900  Level Miami Center
Tue 02:17:12 PM 27.5100 -80.3036 76° East 79 91 1,400 450 Climbing Miami Center
Tue 02:18:12 PM 27.5211 -80.2758 66° East 79 91 1,800 550 Climbing Miami Center
Tue 02:19:12 PM 27.5461 -80.2742 North 74 85 2,500 600 Climbing Miami Center
Tue 02:20:12 PM 27.5731 -80.2867 338° Northwest 89 102 3,000 500 Climbing Miami Center
Tue 02:21:12 PM 27.5958 -80.2919 348° North 94 108 3,500 450 Climbing Miami Center
Tue 02:22:12 PM 27.6206 -80.2997 344° North 94 108 3,900 200 Climbing Miami Center
Tue 02:23:12 PM 27.6536 -80.3194 332° Northwest 105 121 3,900 200 Level Miami Center
Tue 02:24:12 PM 27.6867 -80.3369 335° Northwest 115 132 4,300 400 Climbing Miami Center
Tue 02:25:12 PM 27.7153 -80.3542 332° Northwest 115 132 4,700 275 Climbing Miami Center
Tue 02:26:45 PM 27.7667 -80.3833 333° Northwest 127 146 5,000 157 Climbing Orlando TRACON
Tue 02:27:45 PM 27.8000 -80.4000 336° Northwest 136 157 5,100 52 Climbing Orlando TRACON
Tue 02:28:40 PM 27.8333 -80.4167 336° Northwest 138 159 5,100  Level Orlando TRACON
Tue 02:29:40 PM 27.8667 -80.4333 336° Northwest 137 158 5,100  Level Orlando TRACON
Tue 02:30:46 PM 27.9000 -80.4667 319° Northwest 137 158 5,100  Level Orlando TRACON
Tue 02:31:46 PM 27.9333 -80.5000 319° Northwest 136 157 5,100  Level Orlando TRACON
Tue 02:32:35 PM 27.9500 -80.5167 319° Northwest 139 160 5,100  Level Orlando TRACON
Tue 02:33:40 PM 27.9833 -80.5333 336° Northwest 140 161 5,100  Level Orlando TRACON
Tue 02:34:40 PM 28.0167 -80.5667 319° Northwest 139 160 5,100  Level Orlando TRACON
Tue 02:35:40 PM 28.0500 -80.5833 336° Northwest 139 160 5,100  Level Orlando TRACON
Tue 02:36:47 PM 28.0833 -80.6167 319° Northwest 138 159 5,100  Level Orlando TRACON
Tue 02:37:47 PM 28.1167 -80.6333 336° Northwest 141 162 5,100  Level Orlando TRACON
Tue 02:38:47 PM 28.1667 -80.6500 344° North 145 167 5,100  Level Orlando TRACON
Tue 02:39:47 PM 28.2000 -80.6667 336° Northwest 140 161 5,100  Level Orlando TRACON
Tue 02:40:41 PM 28.2333 -80.6833 336° Northwest 146 168 5,100  Level Orlando TRACON
Tue 02:41:41 PM 28.2667 -80.7000 336° Northwest 138 159 5,100  Level Orlando TRACON
Tue 02:42:36 PM 28.3000 -80.7000 360° North 144 166 5,100  Level Orlando TRACON
Tue 02:43:36 PM 28.3333 -80.7167 336° Northwest 141 162 5,100  Level Orlando TRACON
Tue 02:44:36 PM 28.3833 -80.7333 344° North 138 159 5,100  Level Orlando TRACON
Tue 02:45:36 PM 28.4167 -80.7500 336° Northwest 137 158 5,100  Level Orlando TRACON
Tue 02:46:36 PM 28.4500 -80.7667 336° Northwest 144 166 5,100  Level Orlando TRACON
Tue 02:47:36 PM 28.4833 -80.7833 336° Northwest 147 169 5,100  Level Orlando TRACON
Tue 02:48:36 PM 28.5333 -80.8000 344° North 143 165 5,100  Level Orlando TRACON
Tue 02:49:36 PM 28.5667 -80.8000 360° North 146 168 5,100  Level Orlando TRACON
Tue 02:50:31 PM 28.6000 -80.8167 336° Northwest 146 168 5,100  Level Orlando TRACON
Tue 02:51:31 PM 28.6333 -80.8333 336° Northwest 146 168 5,100  Level Orlando TRACON
Tue 02:52:43 PM 28.6833 -80.8500 344° North 145 167 5,100  Level Orlando TRACON
Tue 02:53:43 PM 28.7333 -80.8667 344° North 150 173 5,100  Level Orlando TRACON
Tue 02:55:33 PM 28.7917 -80.8978 335° Northwest 144 166 5,100  Level Jacksonville Center
Tue 02:56:34 PM 28.8297 -80.9136 340° North 149 171 5,100  Level Jacksonville Center
Tue 02:57:41 PM 28.8758 -80.9294 343° North 146 168 5,100  Level Jacksonville Center
Tue 02:58:35 PM 28.9114 -80.9475 336° Northwest 145 167 5,100  Level Jacksonville Center
Tue 02:59:54 PM 28.9619 -80.9633 345° North 151 174 5,100  Level Jacksonville Center
Tue 03:00:37 PM 28.9892 -80.9744 340° North 148 170 5,100  Level Jacksonville Center
Tue 03:01:38 PM 29.0269 -80.9881 343° North 148 170 5,100  Level Jacksonville Center
Tue 03:02:57 PM 29.0817 -81.0133 338° Northwest 151 174 5,100  Level Jacksonville Center
Tue 03:03:52 PM 29.1150 -81.0244 344° North 151 174 5,100  Level Jacksonville Center
Tue 03:04:52 PM 29.1572 -81.0428 339° North 151 174 5,100  Level Jacksonville Center
Tue 03:05:53 PM 29.1969 -81.0586 341° North 145 167 5,100  Level Jacksonville Center
Tue 03:06:48 PM 29.2306 -81.0722 341° North 147 169 5,100  Level Jacksonville Center
Tue 03:07:49 PM 29.2706 -81.0881 341° North 148 170 5,100  Level Jacksonville Center
Tue 03:08:50 PM 29.3083 -81.1017 343° North 147 169 5,100  Level Jacksonville Center
Tue 03:10:09 PM 29.3586 -81.1247 338° Northwest 145 167 5,100  Level Jacksonville Center
Tue 03:11:03 PM 29.3944 -81.1358 345° North 145 167 5,100  Level Jacksonville Center
Tue 03:11:58 PM 29.4278 -81.1497 340° North 144 166 5,100  Level Jacksonville Center
Tue 03:12:53 PM 29.4636 -81.1633 342° North 143 165 5,100  Level Jacksonville Center
Tue 03:13:53 PM 29.5014 -81.1769 343° North 143 165 5,100  Level Jacksonville Center
Tue 03:15:00 PM 29.5433 -81.1931 342° North 144 166 5,100  Level Jacksonville Center
Tue 03:16:01 PM 29.5853 -81.2114 339° North 145 167 5,100  Level Jacksonville Center
Tue 03:17:02 PM 29.6189 -81.2275 337° Northwest 145 167 5,100  Level Jacksonville Center
Tue 03:17:39 PM 29.6442 -81.2342 347° North 146 168 5,100  Level Jacksonville Center
Tue 03:18:28 PM 29.6775 -81.2481 340° North 148 170 5,100  Level Jacksonville Center
Tue 03:19:29 PM 29.7153 -81.2617 343° North 148 170 5,100  Level Jacksonville Center
Tue 03:20:30 PM 29.7553 -81.2800 338° Northwest 146 168 5,100  Level Jacksonville Center
Tue 03:21:25 PM 29.7889 -81.2917 343° North 146 168 5,100  Level Jacksonville Center
Tue 03:22:26 PM 29.8308 -81.3075 342° North 149 171 5,100  Level Jacksonville Center
Tue 03:23:27 PM 29.8706 -81.3261 338° Northwest 151 174 5,100  Level Jacksonville Center
Tue 03:24:34 PM 29.9125 -81.3422 342° North 146 168 5,100 -246 Level Jacksonville Center
Tue 03:25:29 PM 29.9525 -81.3631 336° Northwest 165 190 4,600 -362 Descending Jacksonville Center
Tue 03:26:30 PM 29.9967 -81.3769 345° North 164 189 4,400 -313 Descending Jacksonville Center
Tue 03:27:24 PM 30.0383 -81.3739 North 164 189 4,000 -466 Descending Jacksonville Center
Tue 03:28:26 PM 30.0839 -81.3561 19° North 163 188 3,500 -590 Descending Jacksonville Center
Tue 03:29:26 PM 30.1300 -81.3581 358° North 174 200 2,800 -545 Descending Jacksonville Center
Tue 03:30:27 PM 30.1736 -81.3547 North 159 183 2,400 -326 Descending Jacksonville Center
Tue 03:31:35 PM 30.2197 -81.3686 345° North 149 171 2,100 -186 Descending Jacksonville Center
Tue 03:32:36 PM 30.2392 -81.4067 301° West 141 162 2,000 -49 Descending Jacksonville Center
Tue 03:33:37 PM 30.2664 -81.4328 320° Northwest 125 144 2,000 -295 Level Jacksonville Center
Tue 03:34:38 PM 30.2878 -81.4589 313° West 102 117 1,400 -595 Descending Jacksonville Center
Tue 03:35:38 PM 30.3047 -81.4825 310° West 90 104 800 -496 Descending Jacksonville Center
Tue 03:36:39 PM 30.3217 -81.5042 312° West 89 102 400 -393 Descending Jacksonville Center
Tue 03:38:00 PM 30.3333 -81.5000 350° North  Level FlightAware Approximate
Tue 03:45:00 PM 30.3363 -81.5144 350° North  Level Estimated

Login

Don't have an account? Register now (free) for customized features, flight alerts, and more!